Time;durP1;ratioP1;P1;durP2;ratioP2;P2;SDS_P1;SDS_P2;PMS_P1;PMS_P2;Temp;Humidity;BMP_temperature;BMP_pressure;BME280_temperature;BME280_humidity;BME280_pressure;Samples;Min_cycle;Max_cycle;Signal;HPM_P1;HPM_P2
2022/12/15 00:41:06;;;;;;;44.50;26.40;;;;;;;-145.23;100.00;58621.06;5009814;28;20234;-54
2022/12/15 00:43:34;;;;;;;49.70;31.07;;;;;;;-145.23;100.00;58621.06;5006412;28;20238;-53
2022/12/15 00:48:46;;;;;;;45.80;28.93;;;;;;;-145.23;100.00;58621.06;5012685;28;20241;-54
2022/12/15 00:51:12;;;;;;;46.23;29.33;;;;;;;-145.23;100.00;58621.06;5005042;28;20315;-54
2022/12/15 01:21:07;;;;;;;46.70;29.23;;;;;;;-145.23;100.00;58621.06;5006343;28;20287;-54
2022/12/15 01:23:34;;;;;;;42.50;28.63;;;;;;;-145.23;100.00;58621.06;5002774;28;20324;-53
2022/12/15 01:26:01;;;;;;;48.43;28.90;;;;;;;-145.23;100.00;58621.06;5001464;28;20239;-54
2022/12/15 01:28:29;;;;;;;51.93;29.13;;;;;;;-145.23;100.00;58621.06;5001740;28;20831;-54
2022/12/15 01:30:56;;;;;;;47.67;28.77;;;;;;;-145.23;100.00;58621.06;5005381;28;20319;-54
2022/12/15 01:33:23;;;;;;;43.43;27.63;;;;;;;-145.23;100.00;58621.06;5004753;28;20235;-55
2022/12/15 01:35:56;;;;;;;47.50;30.97;;;;;;;-145.23;100.00;58621.06;5005570;28;20243;-57
2022/12/15 01:38:22;;;;;;;46.50;31.00;;;;;;;-145.23;100.00;58621.06;5002064;28;20235;-53
2022/12/15 01:40:51;;;;;;;50.20;28.93;;;;;;;-145.23;100.00;58621.06;5004046;28;20293;-57
2022/12/15 01:43:19;;;;;;;48.53;31.37;;;;;;;-145.23;100.00;58621.06;5009513;28;20251;-53
2022/12/15 01:45:54;;;;;;;49.17;30.17;;;;;;;-145.23;100.00;58621.06;5009307;28;20235;-53
2022/12/15 01:48:27;;;;;;;44.50;29.27;;;;;;;-145.23;100.00;58621.06;5007086;28;20235;-54
2022/12/15 01:51:01;;;;;;;48.07;30.80;;;;;;;-145.23;100.00;58621.06;5008040;28;20717;-54
2022/12/15 01:53:29;;;;;;;48.53;30.93;;;;;;;-145.23;100.00;58621.06;5005575;28;20604;-53
2022/12/15 01:55:56;;;;;;;46.80;30.90;;;;;;;-145.23;100.00;58621.06;5006141;28;20697;-54
2022/12/15 01:58:23;;;;;;;47.57;30.70;;;;;;;-145.23;100.00;58621.06;5005404;28;20614;-54
2022/12/15 02:00:51;;;;;;;50.60;30.10;;;;;;;-145.23;100.00;58621.06;5003400;28;20779;-58
2022/12/15 02:03:18;;;;;;;42.23;29.53;;;;;;;-145.23;100.00;58621.06;5003543;28;20240;-54
2022/12/15 02:05:46;;;;;;;42.87;30.27;;;;;;;-145.23;100.00;58621.06;5022365;28;20856;-53
2022/12/15 02:08:12;;;;;;;50.40;32.60;;;;;;;-145.23;100.00;58621.06;5023448;28;20229;-53
2022/12/15 02:10:50;;;;;;;39.83;26.70;;;;;;;-145.23;100.00;58621.06;5028532;28;20238;-53
2022/12/15 02:13:21;;;;;;;47.00;30.00;;;;;;;-145.23;100.00;58621.06;5021311;28;20237;-59
2022/12/15 02:15:51;;;;;;;47.40;29.40;;;;;;;-145.23;100.00;58621.06;5011620;28;20243;-54
2022/12/15 02:18:22;;;;;;;47.70;30.23;;;;;;;-145.23;100.00;58621.06;5006623;28;20323;-55
2022/12/15 02:20:53;;;;;;;49.93;32.90;;;;;;;-145.23;100.00;58621.06;5002571;28;20227;-55
2022/12/15 02:24:04;;;;;;;46.63;29.37;;;;;;;-145.23;100.00;58621.06;5006416;28;20325;-54
2022/12/15 02:26:48;;;;;;;46.13;29.83;;;;;;;-145.23;100.00;58621.06;4942366;28;20240;-54
2022/12/15 02:29:40;;;;;;;47.97;30.77;;;;;;;-145.23;100.00;58621.06;4995699;28;20291;-55
2022/12/15 02:32:12;;;;;;;48.33;29.17;;;;;;;-145.23;100.00;58621.06;4978522;28;20610;-55
2022/12/15 02:34:42;;;;;;;40.37;27.37;;;;;;;-145.23;100.00;58621.06;5002636;28;20318;-53
2022/12/15 02:37:12;;;;;;;42.53;29.17;;;;;;;-145.23;100.00;58621.06;5000576;28;20231;-53
2022/12/15 02:39:38;;;;;;;40.20;27.23;;;;;;;-145.23;100.00;58621.06;5002486;28;20230;-53
2022/12/15 02:42:05;;;;;;;44.17;30.10;;;;;;;-145.23;100.00;58621.06;5000061;28;20249;-54
2022/12/15 02:44:35;;;;;;;47.33;29.63;;;;;;;-145.23;100.00;58621.06;5004298;28;20281;-53
2022/12/15 02:47:15;;;;;;;41.57;28.13;;;;;;;-145.23;100.00;58621.06;5000277;28;20227;-53
2022/12/15 02:49:49;;;;;;;45.90;28.70;;;;;;;-145.23;100.00;58621.06;5001756;28;20231;-54
2022/12/15 02:52:26;;;;;;;40.70;27.70;;;;;;;-145.23;100.00;58621.06;4999744;28;20330;-54
2022/12/15 02:55:12;;;;;;;44.70;27.63;;;;;;;-145.23;100.00;58621.06;4999698;28;20574;-54
2022/12/15 02:57:45;;;;;;;40.93;26.30;;;;;;;-145.23;100.00;58621.06;4995324;28;20826;-53
2022/12/15 03:00:13;;;;;;;38.87;25.40;;;;;;;-145.23;100.00;58621.06;4998089;28;20243;-53
2022/12/15 03:02:44;;;;;;;44.03;27.97;;;;;;;-145.23;100.00;58621.06;4992056;28;20305;-53
2022/12/15 03:05:12;;;;;;;43.97;27.57;;;;;;;-145.23;100.00;58621.06;4995532;28;20274;-53
2022/12/15 03:07:41;;;;;;;44.03;26.70;;;;;;;-145.23;100.00;58621.06;4993834;28;20232;-54
2022/12/15 03:10:10;;;;;;;38.70;26.03;;;;;;;-145.23;100.00;58621.06;4993581;28;20250;-53
2022/12/15 03:12:37;;;;;;;40.23;25.47;;;;;;;-145.23;100.00;58621.06;4995647;28;20243;-53
2022/12/15 03:15:05;;;;;;;34.93;23.07;;;;;;;-145.23;100.00;58621.06;4998775;28;20651;-54
2022/12/15 03:17:32;;;;;;;38.03;25.20;;;;;;;-145.23;100.00;58621.06;4997074;28;20223;-53
2022/12/15 03:20:00;;;;;;;41.57;24.63;;;;;;;-145.23;100.00;58621.06;4996519;28;20231;-53
2022/12/15 03:22:27;;;;;;;38.70;22.80;;;;;;;-145.23;100.00;58621.06;5004225;28;20604;-55
2022/12/15 03:24:54;;;;;;;40.23;24.03;;;;;;;-145.23;100.00;58621.06;5003200;28;20234;-54
2022/12/15 03:27:22;;;;;;;34.20;21.60;;;;;;;-145.23;100.00;58621.06;5005274;28;20308;-55
2022/12/15 03:29:49;;;;;;;34.23;23.30;;;;;;;-145.23;100.00;58621.06;5001271;28;20268;-55
2022/12/15 03:32:15;;;;;;;36.13;24.27;;;;;;;-145.23;100.00;58621.06;5015784;28;20230;-55
2022/12/15 03:34:42;;;;;;;35.40;23.07;;;;;;;-145.23;100.00;58621.06;5018161;28;20606;-54
2022/12/15 03:37:11;;;;;;;38.43;24.60;;;;;;;-145.23;100.00;58621.06;5023658;28;20237;-54
2022/12/15 03:39:38;;;;;;;41.10;23.43;;;;;;;-145.23;100.00;58621.06;5026678;28;20226;-57
2022/12/15 03:42:06;;;;;;;45.63;26.17;;;;;;;-145.23;100.00;58621.06;5024930;28;20238;-54
2022/12/15 03:44:33;;;;;;;36.03;23.53;;;;;;;-145.23;100.00;58621.06;5029264;28;20927;-54
2022/12/15 03:47:00;;;;;;;35.83;24.00;;;;;;;-145.23;100.00;58621.06;5025662;28;20265;-54
2022/12/15 03:49:27;;;;;;;31.90;23.10;;;;;;;-145.23;100.00;58621.06;5022996;28;20245;-53
2022/12/15 03:51:54;;;;;;;36.37;23.67;;;;;;;-145.23;100.00;58621.06;5024340;28;20614;-54
2022/12/15 03:54:22;;;;;;;38.10;24.83;;;;;;;-145.23;100.00;58621.06;5017414;28;20234;-54
2022/12/15 03:56:50;;;;;;;38.50;24.53;;;;;;;-145.23;100.00;58621.06;5022888;28;20247;-55
2022/12/15 03:59:16;;;;;;;34.53;22.60;;;;;;;-145.23;100.00;58621.06;4999624;28;20230;-54
2022/12/15 04:01:47;;;;;;;47.70;26.27;;;;;;;-145.23;100.00;58621.06;5004472;28;20231;-54
2022/12/15 04:04:15;;;;;;;40.37;23.90;;;;;;;-145.23;100.00;58621.06;5001012;28;20231;-53
2022/12/15 04:06:42;;;;;;;39.80;26.27;;;;;;;-145.23;100.00;58621.06;5003755;28;20239;-54
2022/12/15 04:09:09;;;;;;;37.07;24.27;;;;;;;-145.23;100.00;58621.06;5004840;28;20254;-54
2022/12/15 04:11:37;;;;;;;38.63;24.53;;;;;;;-145.23;100.00;58621.06;4999648;28;20232;-53
2022/12/15 04:14:04;;;;;;;39.60;25.13;;;;;;;-145.23;100.00;58621.06;5003156;28;20227;-55
2022/12/15 04:16:31;;;;;;;39.53;24.33;;;;;;;-145.23;100.00;58621.06;5004478;28;20271;-54
2022/12/15 04:21:43;;;;;;;39.83;24.00;;;;;;;-145.23;100.00;58621.06;5003782;28;20238;-53
2022/12/15 05:32:47;;;;;;;41.97;24.37;;;;;;;-145.23;100.00;58621.06;5004238;28;20724;-53
2022/12/15 05:35:14;;;;;;;45.63;27.33;;;;;;;-145.23;100.00;58621.06;5005392;28;20238;-54
2022/12/15 05:37:41;;;;;;;45.83;27.87;;;;;;;-145.23;100.00;58621.06;5005956;28;20244;-55
2022/12/15 05:40:09;;;;;;;48.40;29.17;;;;;;;-145.23;100.00;58621.06;5004803;28;20235;-53
2022/12/15 05:42:36;;;;;;;43.20;24.97;;;;;;;-145.23;100.00;58621.06;5004704;28;20237;-54
2022/12/15 05:45:05;;;;;;;46.17;27.27;;;;;;;-145.23;100.00;58621.06;5005066;28;20232;-53
2022/12/15 05:47:32;;;;;;;39.87;27.10;;;;;;;-145.23;100.00;58621.06;5005533;28;20305;-55
2022/12/15 05:50:00;;;;;;;43.47;26.63;;;;;;;-145.23;100.00;58621.06;5006450;28;20702;-55
2022/12/15 05:52:27;;;;;;;41.87;23.93;;;;;;;-145.23;100.00;58621.06;5005331;28;20468;-54
2022/12/15 05:54:54;;;;;;;44.27;24.70;;;;;;;-145.23;100.00;58621.06;5003512;28;20752;-55
2022/12/15 05:57:24;;;;;;;39.27;27.17;;;;;;;-145.23;100.00;58621.06;5009135;28;20259;-58
2022/12/15 05:59:51;;;;;;;50.83;26.20;;;;;;;-145.23;100.00;58621.06;5003958;28;20233;-55
2022/12/15 06:02:18;;;;;;;40.43;24.07;;;;;;;-145.23;100.00;58621.06;4998801;28;20261;-54
2022/12/15 06:04:45;;;;;;;39.87;23.37;;;;;;;-145.23;100.00;58621.06;5002765;28;20693;-54
2022/12/15 06:07:13;;;;;;;42.83;26.27;;;;;;;-145.23;100.00;58621.06;5002813;28;20245;-53
2022/12/15 06:09:43;;;;;;;43.37;26.37;;;;;;;-145.23;100.00;58621.06;5003750;28;20234;-54
2022/12/15 06:12:10;;;;;;;34.90;22.57;;;;;;;-145.23;100.00;58621.06;5003244;28;20240;-53
2022/12/15 06:14:37;;;;;;;45.33;25.17;;;;;;;-145.23;100.00;58621.06;5003547;28;20706;-53
2022/12/15 06:17:04;;;;;;;44.33;24.70;;;;;;;-145.23;100.00;58621.06;5005066;28;20234;-53
2022/12/15 06:19:31;;;;;;;42.10;25.17;;;;;;;-145.23;100.00;58621.06;5002669;28;20330;-54
2022/12/15 06:21:58;;;;;;;38.37;24.80;;;;;;;-145.23;100.00;58621.06;5009499;28;20242;-52
2022/12/15 06:24:27;;;;;;;47.47;25.70;;;;;;;-145.23;100.00;58621.06;5004977;28;20239;-54
2022/12/15 06:26:54;;;;;;;49.67;27.50;;;;;;;-145.23;100.00;58621.06;5002362;28;20321;-54
2022/12/15 06:29:21;;;;;;;40.80;24.13;;;;;;;-145.23;100.00;58621.06;5004166;28;20230;-54
2022/12/15 06:31:48;;;;;;;40.93;25.13;;;;;;;-145.23;100.00;58621.06;4997104;28;20345;-54
2022/12/15 06:34:18;;;;;;;55.03;25.17;;;;;;;-145.23;100.00;58621.06;5004709;28;20460;-52
2022/12/15 06:36:45;;;;;;;43.73;27.40;;;;;;;-145.23;100.00;58621.06;5004710;28;20447;-55
2022/12/15 06:39:14;;;;;;;38.60;25.03;;;;;;;-145.23;100.00;58621.06;5005844;28;20237;-54
2022/12/15 06:41:42;;;;;;;44.03;24.33;;;;;;;-145.23;100.00;58621.06;5001837;28;20236;-53
2022/12/15 06:44:13;;;;;;;43.90;25.10;;;;;;;-145.23;100.00;58621.06;5006253;28;20309;-55
2022/12/15 06:46:40;;;;;;;39.27;23.77;;;;;;;-145.23;100.00;58621.06;5008115;28;20344;-55
2022/12/15 06:49:07;;;;;;;42.20;25.00;;;;;;;-145.23;100.00;58621.06;5010866;28;20233;-58
2022/12/15 06:51:35;;;;;;;44.63;25.10;;;;;;;-145.23;100.00;58621.06;5008889;28;20239;-56
2022/12/15 06:54:02;;;;;;;38.83;21.53;;;;;;;-145.23;100.00;58621.06;5003113;28;20226;-55
2022/12/15 06:56:30;;;;;;;39.13;22.07;;;;;;;-145.23;100.00;58621.06;5010737;28;20243;-53
2022/12/15 06:58:58;;;;;;;41.33;26.47;;;;;;;-145.23;100.00;58621.06;5005221;28;20234;-54
2022/12/15 07:01:28;;;;;;;35.63;23.97;;;;;;;-145.23;100.00;58621.06;5003009;28;20880;-57
2022/12/15 07:03:55;;;;;;;35.70;21.67;;;;;;;-145.23;100.00;58621.06;5000842;28;20313;-55
2022/12/15 07:06:22;;;;;;;34.33;23.27;;;;;;;-145.23;100.00;58621.06;5003344;28;20256;-54
2022/12/15 07:08:52;;;;;;;37.40;22.73;;;;;;;-145.23;100.00;58621.06;5005324;28;20259;-54
2022/12/15 07:11:19;;;;;;;35.33;23.33;;;;;;;-145.23;100.00;58621.06;5001105;28;20244;-53
2022/12/15 07:13:49;;;;;;;35.33;22.97;;;;;;;-145.23;100.00;58621.06;5003738;28;20239;-53
2022/12/15 07:16:18;;;;;;;36.17;22.03;;;;;;;-145.23;100.00;58621.06;5010395;28;20234;-53
2022/12/15 07:18:45;;;;;;;34.97;21.80;;;;;;;-145.23;100.00;58621.06;5009259;28;20228;-53
2022/12/15 07:21:12;;;;;;;31.77;21.13;;;;;;;-145.23;100.00;58621.06;5003168;28;20238;-55
2022/12/15 07:23:39;;;;;;;29.40;20.30;;;;;;;-145.23;100.00;58621.06;5004943;28;20314;-54
2022/12/15 07:26:08;;;;;;;27.47;20.70;;;;;;;-145.23;100.00;58621.06;5014969;28;20236;-53
2022/12/15 07:28:36;;;;;;;33.00;21.30;;;;;;;-145.23;100.00;58621.06;5019384;28;20231;-55
2022/12/15 07:31:03;;;;;;;35.63;21.53;;;;;;;-145.23;100.00;58621.06;5020741;28;20299;-54
2022/12/15 07:33:33;;;;;;;36.07;22.13;;;;;;;-145.23;100.00;58621.06;5023698;28;20278;-54
2022/12/15 07:36:00;;;;;;;36.10;21.60;;;;;;;-145.23;100.00;58621.06;5020163;28;20228;-53
2022/12/15 07:38:27;;;;;;;31.53;20.57;;;;;;;-145.23;100.00;58621.06;5023818;28;20322;-54
2022/12/15 07:40:54;;;;;;;32.47;22.57;;;;;;;-145.23;100.00;58621.06;5023019;28;20238;-55
2022/12/15 07:43:23;;;;;;;32.40;20.83;;;;;;;-145.23;100.00;58621.06;5034720;28;20504;-58
2022/12/15 07:45:53;;;;;;;31.70;20.33;;;;;;;-145.23;100.00;58621.06;5021758;28;20232;-54
2022/12/15 07:48:22;;;;;;;31.97;21.13;;;;;;;-145.23;100.00;58621.06;5022357;28;20259;-54
2022/12/15 07:50:56;;;;;;;39.27;23.30;;;;;;;-145.23;100.00;58621.06;5019724;28;20246;-54
2022/12/15 07:53:23;;;;;;;31.67;21.33;;;;;;;-145.23;100.00;58621.06;5022725;28;20234;-54
2022/12/15 07:55:55;;;;;;;32.10;20.67;;;;;;;-145.23;100.00;58621.06;5022795;28;20242;-53
2022/12/15 07:58:21;;;;;;;34.77;21.03;;;;;;;-145.23;100.00;58621.06;5001101;28;20321;-54
2022/12/15 08:00:48;;;;;;;38.27;21.87;;;;;;;-145.23;100.00;58621.06;4998732;28;20234;-53
2022/12/15 08:03:15;;;;;;;31.17;20.83;;;;;;;-145.23;100.00;58621.06;5002874;28;20235;-54
2022/12/15 08:05:42;;;;;;;30.30;20.23;;;;;;;-145.23;100.00;58621.06;5001461;28;20628;-54
2022/12/15 08:08:11;;;;;;;27.47;19.77;;;;;;;-145.23;100.00;58621.06;4997388;28;20244;-54
2022/12/15 08:10:39;;;;;;;32.33;21.70;;;;;;;-145.23;100.00;58621.06;5003203;28;20231;-53
2022/12/15 08:13:06;;;;;;;29.27;19.43;;;;;;;-145.23;100.00;58621.06;5005803;28;20238;-54
2022/12/15 08:15:37;;;;;;;30.97;20.47;;;;;;;-145.23;100.00;58621.06;5005072;28;20314;-53
2022/12/15 08:18:04;;;;;;;31.33;19.33;;;;;;;-145.23;100.00;58621.06;5002930;28;20239;-55
2022/12/15 08:20:32;;;;;;;29.43;19.53;;;;;;;-145.23;100.00;58621.06;5006432;28;20231;-54
2022/12/15 08:22:59;;;;;;;30.37;20.80;;;;;;;-145.23;100.00;58621.06;5003795;28;20246;-53
2022/12/15 08:25:28;;;;;;;32.63;22.10;;;;;;;-145.23;100.00;58621.06;5004151;28;20237;-53
2022/12/15 08:27:55;;;;;;;29.67;20.20;;;;;;;-145.23;100.00;58621.06;5005838;28;20321;-54
2022/12/15 08:30:23;;;;;;;29.83;19.03;;;;;;;-145.23;100.00;58621.06;5005600;28;20227;-54
2022/12/15 08:32:50;;;;;;;34.07;20.87;;;;;;;-145.23;100.00;58621.06;5005869;28;20271;-54
2022/12/15 08:35:17;;;;;;;25.67;19.27;;;;;;;-145.23;100.00;58621.06;5020394;28;20230;-53
2022/12/15 08:37:44;;;;;;;32.23;20.33;;;;;;;-145.23;100.00;58621.06;5006656;28;20242;-53
2022/12/15 08:40:12;;;;;;;33.83;20.57;;;;;;;-145.23;100.00;58621.06;5002361;28;22260;-54
2022/12/15 08:42:41;;;;;;;32.77;20.53;;;;;;;-145.23;100.00;58621.06;4996927;28;20653;-53
2022/12/15 08:45:10;;;;;;;31.57;20.30;;;;;;;-145.23;100.00;58621.06;5004678;28;20314;-55
2022/12/15 08:47:37;;;;;;;35.90;20.77;;;;;;;-145.23;100.00;58621.06;4999896;28;20599;-53
2022/12/15 08:50:05;;;;;;;29.93;20.73;;;;;;;-145.23;100.00;58621.06;5004330;28;20706;-56
2022/12/15 08:52:32;;;;;;;28.13;20.00;;;;;;;-145.23;100.00;58621.06;5006425;28;20239;-53
2022/12/15 08:54:59;;;;;;;31.43;20.47;;;;;;;-145.23;100.00;58621.06;5006716;28;20328;-53
2022/12/15 08:57:27;;;;;;;30.50;20.23;;;;;;;-145.23;100.00;58621.06;5002152;28;20239;-53
2022/12/15 08:59:55;;;;;;;32.67;21.03;;;;;;;-145.23;100.00;58621.06;5001779;28;20238;-55
2022/12/15 09:02:22;;;;;;;31.00;20.23;;;;;;;-145.23;100.00;58621.06;5021043;28;20740;-57
2022/12/15 09:04:49;;;;;;;34.13;23.53;;;;;;;-145.23;100.00;58621.06;5008954;28;20275;-53
2022/12/15 09:07:16;;;;;;;31.67;21.07;;;;;;;-145.23;100.00;58621.06;5018908;28;20922;-53
2022/12/15 09:09:43;;;;;;;34.17;19.67;;;;;;;-145.23;100.00;58621.06;5024902;28;20238;-53
2022/12/15 09:12:11;;;;;;;32.57;21.20;;;;;;;-145.23;100.00;58621.06;5027850;28;20262;-53
2022/12/15 09:14:39;;;;;;;35.13;22.00;;;;;;;-145.23;100.00;58621.06;5026650;28;20258;-54
2022/12/15 09:17:07;;;;;;;32.33;22.13;;;;;;;-145.23;100.00;58621.06;5029841;28;20231;-53
2022/12/15 09:19:35;;;;;;;31.60;20.77;;;;;;;-145.23;100.00;58621.06;5026666;28;20361;-53
2022/12/15 09:22:02;;;;;;;34.43;21.57;;;;;;;-145.23;100.00;58621.06;5028588;28;20332;-54
2022/12/15 09:24:29;;;;;;;32.00;20.53;;;;;;;-145.23;100.00;58621.06;5026349;28;20713;-54
2022/12/15 09:26:56;;;;;;;34.50;21.43;;;;;;;-145.23;100.00;58621.06;5023816;28;20258;-53
2022/12/15 09:29:23;;;;;;;31.73;21.97;;;;;;;-145.23;100.00;58621.06;5024571;28;20238;-54
2022/12/15 09:31:50;;;;;;;33.10;21.30;;;;;;;-145.23;100.00;58621.06;5020661;28;20633;-54
2022/12/15 09:34:18;;;;;;;35.47;21.50;;;;;;;-145.23;100.00;58621.06;5004487;28;20277;-54
2022/12/15 09:36:45;;;;;;;34.37;20.57;;;;;;;-145.23;100.00;58621.06;4997863;28;20333;-54
2022/12/15 09:39:14;;;;;;;36.83;21.93;;;;;;;-145.23;100.00;58621.06;5006542;28;20307;-54
2022/12/15 09:41:42;;;;;;;31.57;21.80;;;;;;;-145.23;100.00;58621.06;5022715;28;20400;-54
2022/12/15 09:44:13;;;;;;;35.17;21.47;;;;;;;-145.23;100.00;58621.06;5023398;28;20266;-54
2022/12/15 09:46:47;;;;;;;27.80;19.33;;;;;;;-145.23;100.00;58621.06;5018444;28;20274;-53
2022/12/15 09:49:19;;;;;;;34.63;22.07;;;;;;;-145.23;100.00;58621.06;5021308;28;20239;-54
2022/12/15 09:51:49;;;;;;;30.00;20.63;;;;;;;-145.23;100.00;58621.06;5029912;28;21617;-54
2022/12/15 09:54:16;;;;;;;29.80;19.43;;;;;;;-145.23;100.00;58621.06;5031895;28;20598;-53
2022/12/15 09:56:53;;;;;;;32.13;19.13;;;;;;;-145.23;100.00;58621.06;5025182;28;20246;-53
2022/12/15 09:59:41;;;;;;;31.10;20.57;;;;;;;-145.23;100.00;58621.06;5004599;28;20235;-54
2022/12/15 10:02:21;;;;;;;32.80;20.00;;;;;;;-145.23;100.00;58621.06;4927999;28;20266;-57
2022/12/15 10:04:58;;;;;;;29.50;20.50;;;;;;;-145.23;100.00;58621.06;4927129;29;20236;-54
2022/12/15 10:07:28;;;;;;;35.37;21.43;;;;;;;-145.23;100.00;58621.06;4922693;29;20328;-55
2022/12/15 10:09:55;;;;;;;34.70;20.33;;;;;;;-145.23;100.00;58621.06;4923765;28;20325;-54
2022/12/15 10:12:25;;;;;;;30.50;19.47;;;;;;;-145.23;100.00;58621.06;4923020;29;20265;-54
2022/12/15 10:14:56;;;;;;;35.57;20.37;;;;;;;-145.23;100.00;58621.06;4920218;28;20768;-54
2022/12/15 10:17:26;;;;;;;28.60;19.07;;;;;;;-145.23;100.00;58621.06;4918831;28;20285;-53
2022/12/15 10:20:00;;;;;;;29.77;19.23;;;;;;;-145.23;100.00;58621.06;4926765;28;20238;-53
2022/12/15 10:22:31;;;;;;;32.03;20.40;;;;;;;-145.23;100.00;58621.06;4923543;29;20248;-53
2022/12/15 10:24:59;;;;;;;32.00;19.60;;;;;;;-145.23;100.00;58621.06;4922009;28;20317;-53
2022/12/15 10:27:36;;;;;;;33.07;20.80;;;;;;;-145.23;100.00;58621.06;4921081;29;20252;-53
2022/12/15 10:30:05;;;;;;;33.33;20.57;;;;;;;-145.23;100.00;58621.06;4919867;29;20231;-55
2022/12/15 10:32:43;;;;;;;33.87;21.77;;;;;;;-145.23;100.00;58621.06;4923622;28;20238;-55
2022/12/15 10:35:16;;;;;;;31.73;20.27;;;;;;;-145.23;100.00;58621.06;4931592;28;20246;-54
2022/12/15 10:37:43;;;;;;;32.20;20.73;;;;;;;-145.23;100.00;58621.06;4930142;28;20598;-54
2022/12/15 10:40:15;;;;;;;32.53;21.43;;;;;;;-145.23;100.00;58621.06;4990228;28;20236;-53
2022/12/15 10:42:47;;;;;;;29.70;20.27;;;;;;;-145.23;100.00;58621.06;5001458;28;20330;-54
2022/12/15 10:45:31;;;;;;;31.40;20.67;;;;;;;-145.23;100.00;58621.06;5000147;28;21978;-54
2022/12/15 10:48:01;;;;;;;30.97;20.00;;;;;;;-145.23;100.00;58621.06;4999688;28;20247;-53
2022/12/15 10:50:29;;;;;;;32.13;20.60;;;;;;;-145.23;100.00;58621.06;5000371;28;21247;-54
2022/12/15 10:52:56;;;;;;;36.17;22.13;;;;;;;-145.23;100.00;58621.06;4998389;28;20239;-56
2022/12/15 10:55:33;;;;;;;35.00;20.83;;;;;;;-145.23;100.00;58621.06;4997881;28;20242;-58
2022/12/15 10:58:01;;;;;;;30.87;20.00;;;;;;;-145.23;100.00;58621.06;5007897;28;20231;-54
2022/12/15 11:00:30;;;;;;;38.87;23.63;;;;;;;-145.23;100.00;58621.06;5018529;28;20234;-53
2022/12/15 11:02:58;;;;;;;35.37;20.77;;;;;;;-145.23;100.00;58621.06;5003313;28;20946;-53
2022/12/15 11:05:25;;;;;;;32.67;20.53;;;;;;;-145.23;100.00;58621.06;5003958;28;20334;-54
2022/12/15 11:07:55;;;;;;;35.20;21.73;;;;;;;-145.23;100.00;58621.06;4999238;28;20745;-54
2022/12/15 11:10:24;;;;;;;32.47;22.27;;;;;;;-145.23;100.00;58621.06;4997629;28;20331;-58
2022/12/15 11:12:56;;;;;;;31.40;20.00;;;;;;;-145.23;100.00;58621.06;5000780;28;20254;-54
2022/12/15 11:15:41;;;;;;;32.30;21.63;;;;;;;-145.23;100.00;58621.06;4996645;28;22205;-55
2022/12/15 11:18:14;;;;;;;32.73;21.93;;;;;;;-145.23;100.00;58621.06;5003654;28;20234;-54
2022/12/15 11:20:45;;;;;;;28.27;20.27;;;;;;;-145.23;100.00;58621.06;4999035;28;20350;-54
2022/12/15 11:23:18;;;;;;;28.50;19.77;;;;;;;-145.23;100.00;58621.06;5001636;28;20263;-54
2022/12/15 11:25:47;;;;;;;34.13;20.37;;;;;;;-145.23;100.00;58621.06;5002300;28;20243;-54
2022/12/15 11:28:16;;;;;;;33.10;22.57;;;;;;;-145.23;100.00;58621.06;5001293;28;20267;-53
2022/12/15 11:30:45;;;;;;;32.83;21.03;;;;;;;-145.23;100.00;58621.06;4991503;28;20335;-55
2022/12/15 11:33:11;;;;;;;31.10;20.73;;;;;;;-145.23;100.00;58621.06;5002043;28;20247;-53
2022/12/15 11:35:52;;;;;;;31.70;21.10;;;;;;;-145.23;100.00;58621.06;5001054;28;20366;-56
2022/12/15 11:38:24;;;;;;;30.07;21.07;;;;;;;-145.23;100.00;58621.06;4999149;28;20235;-56
2022/12/15 11:40:52;;;;;;;30.17;20.73;;;;;;;-145.23;100.00;58621.06;5006854;28;20239;-54
2022/12/15 11:43:30;;;;;;;35.87;20.90;;;;;;;-145.23;100.00;58621.06;5000823;28;20232;-54
2022/12/15 11:46:09;;;;;;;28.80;19.50;;;;;;;-145.23;100.00;58621.06;4997951;28;20228;-55
2022/12/15 11:48:41;;;;;;;33.30;21.20;;;;;;;-145.23;100.00;58621.06;4999455;28;20932;-53
2022/12/15 11:51:14;;;;;;;33.20;21.97;;;;;;;-145.23;100.00;58621.06;5004642;28;20287;-54
2022/12/15 11:54:01;;;;;;;29.70;19.87;;;;;;;-145.23;100.00;58621.06;5020668;28;20352;-53
2022/12/15 11:56:31;;;;;;;31.50;18.97;;;;;;;-145.23;100.00;58621.06;5014515;28;20231;-55
2022/12/15 11:59:30;;;;;;;27.10;19.13;;;;;;;-145.23;100.00;58621.06;5006003;28;20318;-54
2022/12/15 12:02:17;;;;;;;28.87;19.30;;;;;;;-145.23;100.00;58621.06;4991671;28;20231;-55
2022/12/15 12:04:53;;;;;;;33.57;19.87;;;;;;;-145.23;100.00;58621.06;4981642;28;20366;-54
2022/12/15 12:07:24;;;;;;;34.37;20.17;;;;;;;-145.23;100.00;58621.06;5013255;28;20964;-55
2022/12/15 12:10:02;;;;;;;25.93;19.07;;;;;;;-145.23;100.00;58621.06;5008103;28;20748;-54
2022/12/15 12:12:31;;;;;;;28.43;19.83;;;;;;;-145.23;100.00;58621.06;5005623;28;20310;-54
2022/12/15 12:15:07;;;;;;;27.23;18.67;;;;;;;-145.23;100.00;58621.06;5010565;28;20239;-55
2022/12/15 12:17:40;;;;;;;29.97;18.50;;;;;;;-145.23;100.00;58621.06;5011186;28;20659;-54
2022/12/15 12:20:14;;;;;;;26.87;18.50;;;;;;;-145.23;100.00;58621.06;5004795;28;20228;-53
2022/12/15 12:22:42;;;;;;;30.60;18.67;;;;;;;-145.23;100.00;58621.06;5005442;28;20258;-56
2022/12/15 12:25:14;;;;;;;28.23;19.13;;;;;;;-145.23;100.00;58621.06;5001556;28;20314;-55
2022/12/15 12:27:48;;;;;;;26.43;19.07;;;;;;;-145.23;100.00;58621.06;5025036;28;20343;-53
2022/12/15 12:30:16;;;;;;;29.90;19.60;;;;;;;-145.23;100.00;58621.06;5015884;28;20242;-53
2022/12/15 12:32:47;;;;;;;30.33;18.37;;;;;;;-145.23;100.00;58621.06;5023270;28;20243;-52
2022/12/15 12:35:16;;;;;;;31.53;19.03;;;;;;;-145.23;100.00;58621.06;5025017;28;20237;-54
2022/12/15 12:37:45;;;;;;;30.03;19.07;;;;;;;-145.23;100.00;58621.06;5024463;28;20310;-53
2022/12/15 12:40:19;;;;;;;35.10;19.00;;;;;;;-145.23;100.00;58621.06;5024426;28;20252;-54
2022/12/15 12:42:50;;;;;;;28.63;19.43;;;;;;;-145.23;100.00;58621.06;5025553;28;20267;-52
2022/12/15 12:45:17;;;;;;;31.20;19.97;;;;;;;-145.23;100.00;58621.06;5025890;28;20233;-52
2022/12/15 12:47:49;;;;;;;29.57;17.60;;;;;;;-145.23;100.00;58621.06;5021021;28;20540;-53
2022/12/15 12:50:17;;;;;;;31.73;19.73;;;;;;;-145.23;100.00;58621.06;5021551;28;20255;-54
2022/12/15 12:52:49;;;;;;;27.17;18.20;;;;;;;-145.23;100.00;58621.06;5004205;28;20800;-54
2022/12/15 12:55:37;;;;;;;30.33;19.00;;;;;;;-145.23;100.00;58621.06;5002864;28;20232;-53
2022/12/15 12:58:04;;;;;;;26.57;18.50;;;;;;;-145.23;100.00;58621.06;5004522;28;20235;-54
2022/12/15 13:00:32;;;;;;;31.17;18.87;;;;;;;-145.23;100.00;58621.06;5007455;28;20244;-54
2022/12/15 13:03:17;;;;;;;27.47;18.03;;;;;;;-145.23;100.00;58621.06;5012530;28;20606;-55
2022/12/15 13:05:46;;;;;;;32.67;18.70;;;;;;;-145.23;100.00;58621.06;5005939;28;20245;-56
2022/12/15 13:08:39;;;;;;;27.63;18.10;;;;;;;-145.23;100.00;58621.06;5005064;28;20558;-53
2022/12/15 13:11:39;;;;;;;30.47;18.23;;;;;;;-145.23;100.00;58621.06;5003489;28;20239;-54
2022/12/15 13:14:14;;;;;;;33.03;18.53;;;;;;;-145.23;100.00;58621.06;5001272;28;20234;-53
2022/12/15 13:16:40;;;;;;;25.50;16.63;;;;;;;-145.23;100.00;58621.06;4998082;28;20664;-54
2022/12/15 13:19:08;;;;;;;26.33;17.27;;;;;;;-145.23;100.00;58621.06;5003084;28;20227;-54
2022/12/15 13:22:02;;;;;;;32.97;18.27;;;;;;;-145.23;100.00;58621.06;5001599;28;20245;-55
2022/12/15 13:24:33;;;;;;;28.20;18.43;;;;;;;-145.23;100.00;58621.06;4980351;28;20259;-54
2022/12/15 13:27:05;;;;;;;26.40;17.27;;;;;;;-145.23;100.00;58621.06;5005835;28;20319;-55
2022/12/15 13:29:33;;;;;;;24.17;16.13;;;;;;;-145.23;100.00;58621.06;5004684;28;20705;-54